Time;durP1;ratioP1;P1;durP2;ratioP2;P2;SDS_P1;SDS_P2;PMS_P1;PMS_P2;Temp;Humidity;BMP_temperature;BMP_pressure;BME280_temperature;BME280_humidity;BME280_pressure;Samples;Min_cycle;Max_cycle;Signal;HPM_P1;HPM_P2
2020/12/20 00:00:17;;;;;;;;;17.50;14.75;;;;;11.98;57.19;99353.16;4816253;28;104062;-76
2020/12/20 00:02:50;;;;;;;;;8.00;8.00;;;;;11.97;57.68;99350.66;4821769;28;102727;-77
2020/12/20 00:05:17;;;;;;;;;12.00;10.50;;;;;11.97;57.60;99369.63;4815321;28;102209;-77
2020/12/20 00:07:44;;;;;;;;;12.00;10.75;;;;;11.96;56.70;99357.94;4816489;28;102899;-76
2020/12/20 00:10:12;;;;;;;;;12.75;9.75;;;;;11.96;57.16;99351.69;4819344;28;103766;-76
2020/12/20 00:12:38;;;;;;;;;10.50;8.75;;;;;11.95;57.32;99344.56;4817985;28;102582;-77
2020/12/20 00:15:05;;;;;;;;;12.75;10.00;;;;;11.95;57.34;99344.56;4817607;28;107341;-76
2020/12/20 00:17:32;;;;;;;;;11.00;7.75;;;;;11.94;57.11;99349.16;4814927;28;103985;-76
2020/12/20 00:19:59;;;;;;;;;12.25;8.75;;;;;11.93;56.83;99338.50;4812533;28;104137;-77
2020/12/20 00:22:25;;;;;;;;;9.75;9.25;;;;;11.94;56.97;99337.47;4814457;28;102818;-77
2020/12/20 00:24:52;;;;;;;;;13.25;10.25;;;;;11.91;56.59;99336.00;4819827;28;102131;-77
2020/12/20 00:27:18;;;;;;;;;12.25;9.00;;;;;11.93;56.87;99338.50;4816278;28;103311;-77
2020/12/20 00:29:46;;;;;;;;;11.25;8.75;;;;;11.93;56.99;99346.66;4812339;28;109043;-77
2020/12/20 00:32:13;;;;;;;;;11.00;9.25;;;;;11.91;56.93;99337.84;4814152;28;102828;-77
2020/12/20 00:34:39;;;;;;;;;14.00;12.75;;;;;11.91;56.61;99345.97;4814390;28;102761;-77
2020/12/20 00:37:06;;;;;;;;;15.50;11.50;;;;;11.90;56.78;99341.59;4816714;28;104503;-76
2020/12/20 00:39:33;;;;;;;;;11.25;9.00;;;;;11.90;56.76;99349.72;4812889;28;104070;-76
2020/12/20 00:42:01;;;;;;;;;9.25;9.00;;;;;11.89;57.04;99345.31;4821360;28;103289;-76
2020/12/20 00:44:28;;;;;;;;;14.00;10.75;;;;;11.88;57.12;99354.50;4816041;28;103688;-77
2020/12/20 00:46:55;;;;;;;;;12.00;11.00;;;;;11.88;56.28;99359.94;4815954;28;102234;-77
2020/12/20 00:49:25;;;;;;;;;8.50;8.00;;;;;11.87;56.61;99364.50;4810942;28;104218;-77
2020/12/20 00:51:52;;;;;;;;;18.25;13.00;;;;;11.87;57.01;99359.09;4802403;28;104046;-77
2020/12/20 00:54:22;;;;;;;;;10.25;9.75;;;;;11.87;56.93;99374.50;4823758;28;103465;-76
2020/12/20 00:56:49;;;;;;;;;19.50;11.00;;;;;11.87;56.49;99374.50;4820087;28;102693;-77
2020/12/20 00:59:15;;;;;;;;;8.25;7.25;;;;;11.86;56.35;99367.41;4810091;28;109594;-77
2020/12/20 01:01:42;;;;;;;;;14.25;12.50;;;;;11.86;56.33;99370.94;4811197;28;103059;-77
2020/12/20 01:04:09;;;;;;;;;13.25;8.50;;;;;11.86;56.75;99372.81;4808920;28;102242;-76
2020/12/20 01:06:35;;;;;;;;;9.75;8.50;;;;;11.85;56.66;99365.72;4809751;28;102275;-77
2020/12/20 01:09:03;;;;;;;;;12.25;8.00;;;;;11.85;56.45;99363.84;4775538;28;104182;-77
2020/12/20 01:11:30;;;;;;;;;10.00;9.25;;;;;11.83;56.91;99363.22;4814305;28;103892;-76
2020/12/20 01:13:57;;;;;;;;;9.50;7.75;;;;;11.83;56.73;99367.78;4815636;28;102853;-76
2020/12/20 01:16:31;;;;;;;;;12.50;9.50;;;;;11.84;56.06;99358.63;4819838;28;102479;-76
2020/12/20 01:18:59;;;;;;;;;11.00;9.25;;;;;11.84;56.37;99366.75;4830715;28;103116;-76
2020/12/20 01:21:26;;;;;;;;;11.25;9.00;;;;;11.84;56.44;99364.06;4818055;28;103818;-76
2020/12/20 01:23:53;;;;;;;;;9.75;8.75;;;;;11.83;56.90;99374.03;4816843;28;102579;-76
2020/12/20 01:26:23;;;;;;;;;15.25;10.25;;;;;11.83;56.12;99368.63;4821293;28;102635;-77
2020/12/20 01:28:50;;;;;;;;;10.75;8.75;;;;;11.84;56.01;99366.75;4811629;28;108538;-77
2020/12/20 01:31:17;;;;;;;;;8.25;7.75;;;;;11.83;55.96;99371.34;4814373;28;104795;-76
2020/12/20 01:33:44;;;;;;;;;8.00;8.00;;;;;11.81;56.91;99361.69;4817659;28;102083;-77
2020/12/20 01:36:14;;;;;;;;;9.25;8.50;;;;;11.82;56.32;99366.09;4809403;28;102176;-76
2020/12/20 01:38:41;;;;;;;;;12.00;8.50;;;;;11.82;56.30;99357.97;4814816;28;104063;-76
2020/12/20 01:41:08;;;;;;;;;13.25;8.75;;;;;11.81;56.34;99359.00;4815127;28;103544;-76
2020/12/20 01:43:48;;;;;;;;;11.50;8.00;;;;;11.79;56.34;99356.50;4813994;28;102665;-76
2020/12/20 01:46:17;;;;;;;;;8.50;8.50;;;;;11.79;55.89;99356.50;4813962;28;102202;-75
2020/12/20 01:48:44;;;;;;;;;9.50;8.50;;;;;11.78;56.61;99353.97;4813905;28;105741;-76
2020/12/20 01:51:11;;;;;;;;;12.25;9.25;;;;;11.79;55.92;99353.78;4809057;28;102514;-76
2020/12/20 01:53:38;;;;;;;;;7.00;7.00;;;;;11.78;56.26;99351.25;4813471;28;105415;-76
2020/12/20 01:56:05;;;;;;;;;8.00;7.00;;;;;11.78;56.24;99352.09;4812374;28;102658;-76
2020/12/20 01:58:36;;;;;;;;;11.00;7.25;;;;;11.77;56.31;99357.69;4818356;28;103629;-76
2020/12/20 02:01:07;;;;;;;;;14.25;9.50;;;;;11.73;56.39;99351.81;4813361;28;103428;-77
2020/12/20 02:03:35;;;;;;;;;9.75;9.25;;;;;11.76;56.32;99356.00;4800006;28;102507;-77
2020/12/20 02:06:05;;;;;;;;;10.25;9.75;;;;;11.75;56.17;99354.34;4801530;28;103455;-77
2020/12/20 02:08:32;;;;;;;;;11.00;10.00;;;;;11.75;56.61;99359.78;4812305;28;104110;-77
2020/12/20 02:11:09;;;;;;;;;7.50;6.75;;;;;11.76;56.20;99356.00;4813431;28;102458;-77
2020/12/20 02:13:50;;;;;;;;;10.75;7.75;;;;;11.75;56.34;99365.19;4819925;28;102747;-77
2020/12/20 02:16:17;;;;;;;;;14.25;11.25;;;;;11.74;56.29;99352.66;4820790;28;102805;-77
2020/12/20 02:18:45;;;;;;;;;10.25;9.25;;;;;11.74;56.25;99355.38;4817135;28;104495;-76
2020/12/20 02:21:14;;;;;;;;;8.00;8.00;;;;;11.74;55.90;99360.78;4817517;28;102194;-77
2020/12/20 02:23:42;;;;;;;;;10.00;8.00;;;;;11.73;56.23;99356.41;4818779;28;104244;-77
2020/12/20 02:26:12;;;;;;;;;10.25;7.00;;;;;11.73;56.09;99356.41;4820171;28;102582;-77
2020/12/20 02:28:39;;;;;;;;;8.00;7.25;;;;;11.74;56.22;99366.22;4818249;28;108886;-77
2020/12/20 02:31:06;;;;;;;;;9.50;7.00;;;;;11.73;55.66;99353.69;4816137;28;102762;-76
2020/12/20 02:33:33;;;;;;;;;7.00;7.00;;;;;11.72;56.14;99354.69;4811549;28;103785;-77
2020/12/20 02:36:00;;;;;;;;;7.50;6.75;;;;;11.73;56.30;99350.97;4824360;28;102132;-76
2020/12/20 02:38:28;;;;;;;;;9.75;9.00;;;;;11.71;55.67;99345.72;4815335;28;104226;-76
2020/12/20 02:40:56;;;;;;;;;9.00;7.25;;;;;11.72;56.26;99349.25;4819469;28;103790;-77
2020/12/20 02:43:23;;;;;;;;;8.25;7.75;;;;;11.72;56.21;99346.56;4824684;28;103680;-77
2020/12/20 02:45:50;;;;;;;;;9.25;8.00;;;;;11.70;56.67;99348.63;4817704;28;103964;-76
2020/12/20 02:48:16;;;;;;;;;9.00;8.00;;;;;11.71;56.44;99353.84;4822997;28;104243;-77
2020/12/20 02:50:43;;;;;;;;;7.50;7.00;;;;;11.71;56.42;99342.19;4820923;28;103532;-77
2020/12/20 02:53:10;;;;;;;;;8.00;6.00;;;;;11.70;55.97;99349.47;4815475;28;103509;-77
2020/12/20 02:55:36;;;;;;;;;7.50;6.50;;;;;11.69;56.33;99344.22;4818868;28;102432;-77
2020/12/20 02:58:03;;;;;;;;;11.00;7.50;;;;;11.71;56.08;99342.19;4819019;28;104266;-77
2020/12/20 03:00:31;;;;;;;;;7.50;6.50;;;;;11.70;55.66;99341.34;4817179;28;103576;-77
2020/12/20 03:02:58;;;;;;;;;12.00;8.50;;;;;11.68;55.78;99340.69;4819069;28;102096;-77
2020/12/20 03:05:25;;;;;;;;;8.75;7.50;;;;;11.70;56.21;99340.50;4822376;28;102518;-77
2020/12/20 03:07:51;;;;;;;;;9.00;7.50;;;;;11.67;56.33;99347.13;4812278;28;108464;-77
2020/12/20 03:10:18;;;;;;;;;8.25;7.00;;;;;11.68;56.31;99337.97;4820407;28;102739;-77
2020/12/20 03:12:45;;;;;;;;;8.75;7.00;;;;;11.67;56.11;99338.16;4819680;28;103911;-77
2020/12/20 03:15:12;;;;;;;;;8.50;7.00;;;;;11.67;55.88;99340.84;4814320;28;103679;-83
2020/12/20 03:17:38;;;;;;;;;10.00;7.75;;;;;11.67;55.68;99340.84;4820143;28;104087;-83
2020/12/20 03:20:05;;;;;;;;;12.00;9.25;;;;;11.67;55.49;99340.84;4819257;28;102698;-83
2020/12/20 03:22:31;;;;;;;;;10.75;10.50;;;;;11.66;55.90;99329.22;4814790;28;102259;-83
2020/12/20 03:24:58;;;;;;;;;9.50;9.00;;;;;11.66;55.88;99341.91;4821449;28;103422;-83
2020/12/20 03:27:25;;;;;;;;;9.00;7.00;;;;;11.67;56.06;99346.28;4819923;28;104094;-83
2020/12/20 03:29:51;;;;;;;;;12.00;8.00;;;;;11.66;55.96;99345.47;4815028;28;103984;-83
2020/12/20 03:32:18;;;;;;;;;11.00;9.50;;;;;11.64;56.03;99351.06;4815547;28;102868;-83
2020/12/20 03:34:45;;;;;;;;;11.50;9.25;;;;;11.63;55.75;99346.66;4822027;28;102643;-84
2020/12/20 03:37:12;;;;;;;;;8.75;7.50;;;;;11.64;55.75;99342.09;4814397;28;104755;-83
2020/12/20 03:39:38;;;;;;;;;7.00;6.75;;;;;11.63;55.60;99346.66;4818540;28;102888;-83
2020/12/20 03:42:05;;;;;;;;;7.75;6.75;;;;;11.64;56.07;99348.34;4819052;28;103783;-83
2020/12/20 03:44:31;;;;;;;;;9.50;8.25;;;;;11.64;55.80;99345.66;4815545;28;103671;-83
2020/12/20 03:46:59;;;;;;;;;9.75;8.25;;;;;11.63;56.00;99341.25;4812793;28;104032;-83
2020/12/20 03:49:25;;;;;;;;;6.00;5.75;;;;;11.64;55.76;99342.94;4820659;28;102541;-82
2020/12/20 03:51:52;;;;;;;;;11.50;9.50;;;;;11.65;55.96;99349.19;4815312;28;102387;-83
2020/12/20 03:54:18;;;;;;;;;6.75;6.75;;;;;11.67;56.06;99359.81;4819656;28;103055;-83
2020/12/20 03:56:45;;;;;;;;;9.00;6.25;;;;;11.64;55.76;99351.06;4814666;28;105427;-83
2020/12/20 03:59:12;;;;;;;;;11.00;10.25;;;;;11.63;55.79;99351.25;4815590;28;102749;-83
2020/12/20 04:01:38;;;;;;;;;8.00;7.00;;;;;11.63;56.09;99346.66;4815947;28;102514;-84
2020/12/20 04:04:05;;;;;;;;;7.25;7.25;;;;;11.63;55.87;99346.66;4819698;28;102678;-83
2020/12/20 04:06:31;;;;;;;;;10.25;8.00;;;;;11.61;55.73;99342.47;4813428;28;104406;-83
2020/12/20 04:08:58;;;;;;;;;9.75;8.00;;;;;11.60;56.02;99349.75;4817990;28;103689;-83
2020/12/20 04:11:25;;;;;;;;;11.25;9.25;;;;;11.60;55.86;99343.50;4814907;28;103674;-82
2020/12/20 04:13:51;;;;;;;;;11.00;9.50;;;;;11.61;55.71;99343.31;4820055;28;103911;-83
2020/12/20 04:16:18;;;;;;;;;11.75;10.25;;;;;11.64;55.61;99351.06;4816527;28;104065;-77
2020/12/20 04:18:45;;;;;;;;;7.25;5.50;;;;;11.64;55.52;99347.50;4812171;28;105387;-77
2020/12/20 04:21:28;;;;;;;;;12.50;11.00;;;;;11.66;55.78;99350.03;4814127;28;102845;-77
2020/12/20 04:23:55;;;;;;;;;9.50;7.50;;;;;11.67;56.10;99344.41;4817809;28;104335;-77
2020/12/20 04:26:21;;;;;;;;;10.75;8.50;;;;;11.70;55.45;99349.47;4822019;28;104201;-77
2020/12/20 04:28:48;;;;;;;;;9.75;9.00;;;;;11.71;55.65;99339.47;4819531;28;104330;-77
2020/12/20 04:31:15;;;;;;;;;13.50;9.75;;;;;11.74;55.45;99350.81;4817087;28;103269;-77
2020/12/20 04:33:42;;;;;;;;;10.25;9.25;;;;;11.74;55.49;99347.25;4818513;28;103052;-77
2020/12/20 04:36:09;;;;;;;;;10.50;9.75;;;;;11.75;55.32;99340.81;4814259;28;104715;-77
2020/12/20 04:38:35;;;;;;;;;9.00;9.00;;;;;11.77;55.25;99341.44;4815534;28;102704;-76
2020/12/20 04:41:03;;;;;;;;;13.50;9.25;;;;;11.77;55.64;99330.59;4822452;28;102873;-76
2020/12/20 04:43:29;;;;;;;;;14.00;11.75;;;;;11.77;55.45;99342.28;4818370;28;102263;-77
2020/12/20 04:45:56;;;;;;;;;12.00;11.00;;;;;11.77;55.34;99342.28;4819221;28;104245;-77
2020/12/20 04:48:24;;;;;;;;;14.75;10.75;;;;;11.76;55.32;99339.75;4819694;28;102636;-77
2020/12/20 04:50:50;;;;;;;;;9.25;7.75;;;;;11.76;55.62;99347.88;4817584;28;102291;-77
2020/12/20 04:53:17;;;;;;;;;8.00;7.00;;;;;11.74;55.30;99342.66;4794357;28;102755;-77
2020/12/20 04:55:43;;;;;;;;;6.75;5.50;;;;;11.74;55.14;99347.25;4801719;28;104164;-77
2020/12/20 04:58:10;;;;;;;;;6.25;6.00;;;;;11.74;55.12;99342.66;4812303;28;104669;-77
2020/12/20 05:00:38;;;;;;;;;12.50;10.25;;;;;11.74;55.39;99341.84;4794787;28;102584;-77
2020/12/20 05:03:04;;;;;;;;;9.00;8.00;;;;;11.75;55.40;99343.50;4818526;28;103102;-77
2020/12/20 05:05:31;;;;;;;;;10.00;8.50;;;;;11.75;55.21;99344.38;4817442;28;104037;-77
2020/12/20 05:07:58;;;;;;;;;10.25;8.75;;;;;11.75;55.45;99344.38;4811194;28;102632;-77
2020/12/20 05:10:37;;;;;;;;;10.50;7.25;;;;;11.75;55.24;99346.22;4807750;28;103283;-77
2020/12/20 05:13:05;;;;;;;;;9.50;6.00;;;;;11.75;55.27;99341.66;4763498;28;103243;-76
2020/12/20 05:15:31;;;;;;;;;8.00;7.00;;;;;11.74;55.22;99339.97;4820766;28;104075;-83
2020/12/20 05:18:04;;;;;;;;;7.25;7.00;;;;;11.74;55.37;99342.66;4817937;28;103755;-83
2020/12/20 05:20:41;;;;;;;;;7.00;7.00;;;;;11.74;55.42;99342.66;4814624;28;104814;-83
2020/12/20 05:23:09;;;;;;;;;9.00;8.00;;;;;11.73;55.66;99334.72;4814312;28;102725;-83
2020/12/20 05:25:36;;;;;;;;;9.00;8.25;;;;;11.73;55.01;99343.69;4818201;28;104010;-83
2020/12/20 05:28:10;;;;;;;;;10.25;8.00;;;;;11.72;55.31;99343.84;4817118;28;102621;-83
2020/12/20 05:30:38;;;;;;;;;11.50;6.75;;;;;11.71;55.30;99342.19;4812537;28;102445;-83
2020/12/20 05:33:04;;;;;;;;;8.25;7.00;;;;;11.71;55.39;99345.72;4818507;28;102357;-83
2020/12/20 05:35:32;;;;;;;;;9.75;8.00;;;;;11.70;55.30;99348.63;4818796;28;105651;-83
2020/12/20 05:37:59;;;;;;;;;10.75;8.00;;;;;11.70;55.59;99348.63;4822528;28;103509;-84
2020/12/20 05:40:27;;;;;;;;;7.50;7.00;;;;;11.70;55.38;99349.47;4827240;28;102159;-79
2020/12/20 05:43:01;;;;;;;;;7.75;6.75;;;;;11.70;55.13;99351.34;4835023;28;102657;-83
2020/12/20 05:45:30;;;;;;;;;7.75;6.75;;;;;11.71;55.39;99358.44;4798207;28;108763;-83
2020/12/20 05:47:56;;;;;;;;;7.50;7.50;;;;;11.69;55.20;99360.50;4819336;28;102120;-82
2020/12/20 05:50:27;;;;;;;;;6.50;6.50;;;;;11.69;55.37;99360.50;4825728;28;103296;-83
2020/12/20 05:53:04;;;;;;;;;7.00;6.00;;;;;11.68;55.65;99369.63;4814575;28;102519;-83
2020/12/20 05:55:49;;;;;;;;;8.00;7.00;;;;;11.68;55.16;99392.16;4784961;28;108936;-83
2020/12/20 05:58:16;;;;;;;;;8.00;8.00;;;;;11.67;55.56;99381.50;4818617;28;102193;-83
2020/12/20 06:00:45;;;;;;;;;6.25;6.00;;;;;11.66;55.58;99385.25;4819396;28;103720;-83
2020/12/20 06:03:12;;;;;;;;;9.25;7.00;;;;;11.67;55.32;99384.19;4816193;28;102759;-83
2020/12/20 06:05:45;;;;;;;;;8.25;7.00;;;;;11.65;55.46;99379.00;4820357;28;104052;-83
2020/12/20 06:08:13;;;;;;;;;7.50;7.00;;;;;11.66;55.46;99385.25;4817949;28;103560;-83
2020/12/20 06:10:43;;;;;;;;;9.75;7.50;;;;;11.64;55.15;99386.28;4816380;28;103258;-83
2020/12/20 06:13:14;;;;;;;;;7.75;6.25;;;;;11.63;55.16;99384.59;4822146;28;102715;-83
2020/12/20 06:15:41;;;;;;;;;6.00;6.00;;;;;11.63;55.72;99387.31;4816197;28;104085;-83
2020/12/20 06:18:11;;;;;;;;;10.25;7.00;;;;;11.61;55.25;99386.66;4825263;28;102173;-83
2020/12/20 06:20:48;;;;;;;;;9.50;8.00;;;;;11.62;55.30;99391.03;4819500;28;102989;-83
2020/12/20 06:23:27;;;;;;;;;6.50;5.75;;;;;11.61;55.59;99391.25;4816065;28;102246;-83
2020/12/20 06:25:55;;;;;;;;;6.75;6.00;;;;;11.61;55.21;99383.13;4817142;28;108829;-83
2020/12/20 06:28:25;;;;;;;;;9.75;7.75;;;;;11.61;55.31;99385.81;4813563;28;106027;-83
2020/12/20 06:30:52;;;;;;;;;6.00;4.75;;;;;11.60;55.56;99389.56;4821090;28;102141;-83
2020/12/20 06:33:34;;;;;;;;;10.50;7.75;;;;;11.59;55.38;99387.88;4820436;28;102226;-83
2020/12/20 06:36:11;;;;;;;;;7.00;6.25;;;;;11.59;55.15;99385.16;4774785;28;108846;-83
2020/12/20 06:38:38;;;;;;;;;7.25;6.50;;;;;11.59;55.35;99385.16;4825328;28;102449;-83
2020/12/20 06:41:04;;;;;;;;;7.75;7.50;;;;;11.58;55.46;99389.72;4819912;28;102232;-83
2020/12/20 06:43:35;;;;;;;;;9.50;7.50;;;;;11.58;55.76;99378.06;4814395;28;102487;-83
2020/12/20 06:46:03;;;;;;;;;7.75;6.25;;;;;11.57;55.39;99396.16;4816824;28;103860;-82
2020/12/20 06:48:37;;;;;;;;;7.25;6.50;;;;;11.56;55.24;99399.94;4814339;28;102539;-83
2020/12/20 06:51:05;;;;;;;;;8.00;6.25;;;;;11.57;55.67;99403.47;4809651;28;102643;-83
2020/12/20 06:53:52;;;;;;;;;7.25;6.00;;;;;11.57;55.70;99403.47;4805924;28;102584;-83
2020/12/20 06:56:19;;;;;;;;;7.75;6.75;;;;;11.57;55.64;99406.19;4820460;28;104085;-83
2020/12/20 06:58:47;;;;;;;;;8.50;5.50;;;;;11.56;55.32;99404.50;4816338;28;102122;-84
2020/12/20 07:01:35;;;;;;;;;7.00;6.50;;;;;11.54;55.51;99411.97;4812809;28;103106;-85
2020/12/20 07:04:13;;;;;;;;;8.00;8.00;;;;;11.55;55.00;99398.25;4762403;28;102271;-84
2020/12/20 07:06:41;;;;;;;;;4.25;3.00;;;;;11.54;55.31;99407.38;4819581;28;104144;-84
2020/12/20 07:09:08;;;;;;;;;7.50;7.50;;;;;11.53;55.55;99400.28;4817555;28;104012;-84
2020/12/20 07:11:42;;;;;;;;;7.25;7.25;;;;;11.54;55.04;99412.81;4819677;28;102163;-84
2020/12/20 07:14:18;;;;;;;;;8.75;7.50;;;;;11.54;55.50;99412.81;4820404;28;102677;-84
2020/12/20 07:16:45;;;;;;;;;7.75;7.00;;;;;11.54;55.53;99417.38;4819731;28;105809;-77
2020/12/20 07:19:22;;;;;;;;;9.25;6.00;;;;;11.53;55.51;99411.13;4819715;28;102393;-76
2020/12/20 07:21:55;;;;;;;;;5.00;4.75;;;;;11.53;55.65;99410.28;4813939;28;102657;-77
2020/12/20 07:24:34;;;;;;;;;7.75;6.00;;;;;11.52;55.18;99406.75;4822405;28;102762;-77
2020/12/20 07:27:02;;;;;;;;;7.75;6.00;;;;;11.52;55.29;99414.88;4830442;28;108704;-77
2020/12/20 07:29:30;;;;;;;;;10.50;6.75;;;;;11.54;55.41;99410.09;4813350;28;104421;-77
2020/12/20 07:31:57;;;;;;;;;8.50;5.75;;;;;11.52;55.38;99406.75;4823438;28;102572;-77
2020/12/20 07:34:25;;;;;;;;;6.50;5.75;;;;;11.52;55.07;99404.03;4816342;28;102499;-77
2020/12/20 07:36:52;;;;;;;;;9.75;8.00;;;;;11.50;55.36;99406.09;4800206;28;104107;-78
2020/12/20 07:39:19;;;;;;;;;9.75;7.00;;;;;11.50;55.21;99406.09;4815665;28;102536;-78
2020/12/20 07:41:45;;;;;;;;;11.00;7.25;;;;;11.50;55.22;99406.09;4818109;28;103720;-78
2020/12/20 07:44:12;;;;;;;;;6.75;6.75;;;;;11.51;54.86;99407.78;4818915;28;102359;-85
2020/12/20 07:46:39;;;;;;;;;6.00;5.00;;;;;11.51;55.35;99407.78;4832168;28;104079;-85
2020/12/20 07:49:10;;;;;;;;;6.50;6.50;;;;;11.51;55.43;99406.94;4807075;28;102524;-85
2020/12/20 07:51:37;;;;;;;;;8.50;7.75;;;;;11.50;55.33;99414.22;4819512;28;102790;-85
2020/12/20 07:54:11;;;;;;;;;6.00;4.50;;;;;11.50;55.16;99416.06;4822898;28;102465;-85
2020/12/20 07:56:44;;;;;;;;;6.00;5.25;;;;;11.50;55.10;99419.63;4817775;28;103489;-85
2020/12/20 07:59:12;;;;;;;;;6.00;6.00;;;;;11.51;55.37;99423.19;4823424;28;102496;-85
2020/12/20 08:01:39;;;;;;;;;6.00;4.75;;;;;11.50;55.27;99414.22;4821934;28;102190;-85
2020/12/20 08:04:10;;;;;;;;;11.75;6.75;;;;;11.50;55.18;99416.06;4821600;28;102759;-85
2020/12/20 08:06:41;;;;;;;;;9.75;8.00;;;;;11.48;54.90;99418.97;4819444;28;104023;-85
2020/12/20 08:09:11;;;;;;;;;7.50;6.75;;;;;11.49;55.33;99428.78;4820280;28;105375;-85
2020/12/20 08:11:38;;;;;;;;;10.25;8.50;;;;;11.49;55.31;99425.22;4820520;28;102657;-85
2020/12/20 08:14:09;;;;;;;;;8.75;7.00;;;;;11.48;55.05;99418.97;4827187;28;102625;-85
2020/12/20 08:16:37;;;;;;;;;6.00;5.75;;;;;11.50;54.91;99426.91;4820985;28;104060;-78
2020/12/20 08:19:19;;;;;;;;;7.75;6.50;;;;;11.49;55.43;99420.66;4820948;28;102258;-78
2020/12/20 08:22:29;;;;;;;;;9.75;7.00;;;;;11.48;54.97;99423.56;4818821;28;102322;-78
2020/12/20 08:24:56;;;;;;;;;6.25;5.00;;;;;11.48;55.07;99427.09;4709869;29;102226;-78
2020/12/20 08:27:42;;;;;;;;;7.50;6.75;;;;;11.48;55.04;99429.78;4810706;28;104087;-78
2020/12/20 08:30:11;;;;;;;;;10.00;8.75;;;;;11.49;55.57;99427.94;4762258;28;102267;-78
2020/12/20 08:32:41;;;;;;;;;6.75;5.50;;;;;11.48;55.26;99431.69;4821190;28;102218;-78
2020/12/20 08:35:18;;;;;;;;;5.25;5.25;;;;;11.49;55.24;99436.91;4817840;28;102443;-78
2020/12/20 08:37:45;;;;;;;;;11.75;7.00;;;;;11.47;55.35;99433.56;4821516;28;104084;-78
2020/12/20 08:40:13;;;;;;;;;5.75;5.50;;;;;11.50;55.00;99440.44;4820282;28;103173;-78
2020/12/20 08:42:42;;;;;;;;;7.00;4.00;;;;;11.47;54.60;99427.28;4821490;28;102611;-78
2020/12/20 08:45:18;;;;;;;;;7.50;7.00;;;;;11.48;55.37;99434.41;4822022;28;102709;-78
2020/12/20 08:47:44;;;;;;;;;5.00;5.00;;;;;11.48;55.16;99440.63;4815577;28;103790;-77
2020/12/20 08:50:12;;;;;;;;;6.25;5.25;;;;;11.49;55.10;99442.31;4823059;28;102900;-78
2020/12/20 08:52:39;;;;;;;;;7.00;6.00;;;;;11.49;55.00;99441.47;4813171;28;102167;-78
2020/12/20 08:55:07;;;;;;;;;7.75;7.75;;;;;11.47;55.20;99438.97;4816669;28;102179;-78
2020/12/20 08:57:34;;;;;;;;;9.00;7.75;;;;;11.48;55.24;99447.94;4819693;28;105451;-78
2020/12/20 09:00:11;;;;;;;;;12.25;7.75;;;;;11.47;55.36;99443.53;4820654;28;102257;-78
2020/12/20 09:02:37;;;;;;;;;7.50;6.50;;;;;11.46;55.10;99439.16;4816035;28;102674;-77
2020/12/20 09:05:09;;;;;;;;;7.00;6.00;;;;;11.47;55.13;99438.13;4822085;28;102546;-77
2020/12/20 09:07:47;;;;;;;;;7.00;5.00;;;;;11.47;54.97;99438.13;4820497;28;104051;-78
2020/12/20 09:10:14;;;;;;;;;5.00;5.00;;;;;11.48;55.05;99435.22;4820077;28;102362;-78
2020/12/20 09:12:48;;;;;;;;;6.25;6.00;;;;;11.47;54.97;99441.69;4819432;28;102591;-78
2020/12/20 09:15:15;;;;;;;;;9.75;7.00;;;;;11.47;54.96;99430.84;4822900;28;102199;-78
2020/12/20 09:17:52;;;;;;;;;9.75;6.00;;;;;11.47;55.07;99433.56;4820384;28;104001;-77
2020/12/20 09:20:20;;;;;;;;;5.00;5.00;;;;;11.47;55.28;99433.56;4818353;28;102210;-77
2020/12/20 09:22:52;;;;;;;;;7.75;6.50;;;;;11.48;55.46;99434.41;4816512;28;103502;-76
2020/12/20 09:25:41;;;;;;;;;7.00;5.00;;;;;11.49;55.83;99436.91;4822509;28;105635;-78
2020/12/20 09:28:09;;;;;;;;;7.00;6.25;;;;;11.50;55.95;99446.72;4715506;28;109986;-78
2020/12/20 09:30:43;;;;;;;;;5.75;5.75;;;;;11.50;55.33;99452.13;4818684;28;102132;-78
2020/12/20 09:33:19;;;;;;;;;7.25;6.25;;;;;11.49;55.69;99447.72;4817307;28;102513;-78
2020/12/20 09:35:56;;;;;;;;;7.25;5.25;;;;;11.49;55.62;99447.72;4820910;28;102322;-78
2020/12/20 09:38:23;;;;;;;;;6.50;5.25;;;;;11.49;55.23;99452.31;4821383;28;104061;-78
2020/12/20 09:41:04;;;;;;;;;7.25;5.50;;;;;11.45;55.52;99441.00;4831277;28;104127;-78
2020/12/20 09:43:31;;;;;;;;;7.00;6.50;;;;;11.49;55.34;99446.88;4803766;28;102351;-76
2020/12/20 09:45:58;;;;;;;;;6.75;6.00;;;;;11.49;55.23;99439.59;4822958;28;102541;-76
2020/12/20 09:48:26;;;;;;;;;8.00;6.75;;;;;11.48;55.38;99437.91;4817018;28;108822;-76
2020/12/20 09:50:52;;;;;;;;;9.50;7.50;;;;;11.48;55.39;99432.50;4817675;28;104497;-76
2020/12/20 09:53:19;;;;;;;;;7.00;5.25;;;;;11.50;55.24;99437.75;4815589;28;102312;-76
2020/12/20 09:55:45;;;;;;;;;6.00;5.50;;;;;11.48;55.03;99432.50;4814375;28;102561;-76
2020/12/20 09:58:13;;;;;;;;;7.00;7.00;;;;;11.48;54.93;99432.50;4817207;28;104168;-76
2020/12/20 10:00:40;;;;;;;;;6.75;6.00;;;;;11.48;55.13;99428.97;4819673;28;102651;-76
2020/12/20 10:03:07;;;;;;;;;7.25;6.50;;;;;11.47;54.93;99432.72;4816216;28;102250;-76
2020/12/20 10:05:34;;;;;;;;;5.75;5.00;;;;;11.46;55.33;99425.59;4823917;28;104363;-76
2020/12/20 10:08:01;;;;;;;;;5.50;3.00;;;;;11.44;55.34;99427.66;4816463;28;104062;-76
2020/12/20 10:10:27;;;;;;;;;6.25;5.00;;;;;11.46;55.03;99426.44;4817370;28;102572;-76
2020/12/20 10:12:56;;;;;;;;;7.75;7.75;;;;;11.46;55.22;99418.31;4808118;28;102610;-76
2020/12/20 10:15:24;;;;;;;;;8.00;7.25;;;;;11.45;55.01;99419.34;4803803;28;102653;-76
2020/12/20 10:17:51;;;;;;;;;8.25;7.00;;;;;11.46;54.99;99421.03;4814916;28;104053;-76
2020/12/20 10:20:18;;;;;;;;;7.00;6.00;;;;;11.46;55.10;99421.03;4821732;28;102433;-76
2020/12/20 10:22:45;;;;;;;;;6.00;6.00;;;;;11.47;55.17;99424.59;4817711;28;102967;-76
2020/12/20 10:25:16;;;;;;;;;7.00;6.00;;;;;11.47;54.88;99425.44;4825094;28;102660;-76
2020/12/20 10:27:44;;;;;;;;;8.00;6.50;;;;;11.47;54.64;99428.13;4815569;28;104055;-76
2020/12/20 10:30:11;;;;;;;;;6.00;5.50;;;;;11.48;54.73;99434.41;4835808;28;102673;-76
2020/12/20 10:32:37;;;;;;;;;7.75;6.25;;;;;11.47;54.78;99428.13;4814636;28;102582;-76
2020/12/20 10:35:04;;;;;;;;;6.25;6.00;;;;;11.46;54.95;99423.75;4811613;28;104288;-76
2020/12/20 10:37:31;;;;;;;;;7.25;6.75;;;;;11.45;54.87;99424.75;4820542;28;104144;-76
2020/12/20 10:39:57;;;;;;;;;5.75;5.25;;;;;11.46;54.72;99423.75;4813609;28;102867;-76
2020/12/20 10:42:24;;;;;;;;;7.75;5.75;;;;;11.45;54.85;99424.75;4801555;28;103642;-76
2020/12/20 10:44:51;;;;;;;;;7.00;6.00;;;;;11.45;54.81;99430.19;4812927;28;103658;-76
2020/12/20 10:47:18;;;;;;;;;6.25;5.75;;;;;11.45;54.88;99429.34;4817799;28;103826;-76
2020/12/20 10:49:44;;;;;;;;;11.00;8.00;;;;;11.46;54.41;99421.03;4823216;28;103587;-76
2020/12/20 10:52:11;;;;;;;;;7.25;6.00;;;;;11.46;54.56;99421.03;4813655;28;102530;-76
2020/12/20 10:54:38;;;;;;;;;8.75;7.50;;;;;11.48;55.09;99426.28;4820196;28;102891;-76
2020/12/20 10:57:04;;;;;;;;;8.25;7.25;;;;;11.48;55.60;99420.84;4821586;28;105768;-76
2020/12/20 10:59:31;;;;;;;;;9.00;7.00;;;;;11.47;55.10;99425.44;4826841;28;103537;-76
2020/12/20 11:01:59;;;;;;;;;7.00;5.00;;;;;11.46;54.86;99421.03;4820830;28;102866;-76
2020/12/20 11:04:25;;;;;;;;;7.25;7.25;;;;;11.46;55.08;99421.03;4817716;28;102616;-76
2020/12/20 11:06:58;;;;;;;;;6.25;6.00;;;;;11.46;54.94;99421.03;4817673;28;104148;-75
2020/12/20 11:09:25;;;;;;;;;11.00;7.50;;;;;11.44;55.03;99425.78;4817705;28;102637;-76
2020/12/20 11:11:55;;;;;;;;;7.25;7.00;;;;;11.45;55.20;99424.75;4824290;28;102752;-76
2020/12/20 11:14:21;;;;;;;;;10.00;7.25;;;;;11.47;55.57;99422.72;4825903;28;102279;-76
2020/12/20 11:16:51;;;;;;;;;9.50;9.25;;;;;11.48;55.23;99418.97;4816221;28;105894;-77
2020/12/20 11:19:19;;;;;;;;;10.00;8.75;;;;;11.49;55.13;99415.22;4815751;28;102815;-76
2020/12/20 11:21:47;;;;;;;;;8.75;7.50;;;;;11.48;55.57;99426.28;4818758;28;102435;-74
2020/12/20 11:24:14;;;;;;;;;14.00;13.50;;;;;11.48;54.86;99418.97;4826094;28;102861;-75
2020/12/20 11:26:45;;;;;;;;;18.00;15.50;;;;;11.48;54.80;99410.84;4821799;28;104169;-75
2020/12/20 11:29:13;;;;;;;;;12.00;10.50;;;;;11.51;55.55;99407.78;4823538;28;104700;-74